Main page
METAR-TAF:

METAR-TAF

Airports :

Lleida-Alguaire

Lleida, Spain

latitude: 41-43-40N, longitude: 000-32-09E, elevation: 350 m

Current weather observation

The report was made 28 minutes ago, at 01:00 UTC
Wind 3 kt from the Northeast
Temperature 8°C
Humidity 100%
Pressure 1020 hPa
Visibility: 4700 m
Few clouds at a height of 5500 ft
mist

METAR: LEDA 060100Z AUTO 04003KT 4700 BR FEW055 08/08 Q1020

Time: 02:28 (01:28 UTC)


TAF: missing

Weather observations and forecasts of more than 4000 airports (METAR and TAF reports).

The available stations are represented by yellow and red dots on the map.

Hover mouse over dot to see the name of the station.

Then click to see weather observations and forecasts.

To change the map : click on the green buttons with a black cross to zoom in, on the green button with a dash to zoom out, or on the green arrows for adjacent maps.


METAR-TAF: